KMTNet CTIO LOG BOOK 15.4.2 1  / 1 pages  
                         
Observer: Choi,Park,Kim,Ko Test Observation CCD: 18K CCD    
Weather: clear Temp: 16.7/16.7/16.7 Hum:38/36/25 Moon:94% Av. seeing:<1.1 D.Temp: 1.62e-05
D.Temp: 1.50e-05
   
                         
File Number Object ProjectID Exp. Start Exp. Time Filter FWHM Comments    
8588 begin OBS 22:23 1 R        
8589-8595 bias ALL 22:25   R   dmawait=100, datasource=CTC  8591-8593 N image not saved. IC N reset  8592  8595 M-6 strip level jump    
8596-8598 dark ALL 22:41   R        
8599 flat ALL 23:03 5(4) V   level=30000    
8600 flat ALL 23:05 10(8) V   level=30000    
8601 flat ALL 23:08 18(14) V   level=30000    
8602 flat ALL 23:11 15(12) I   level=29000    
8603 flat ALL 23:14 30(24) I   level=30000  M-6 strip level jump    
8604 flat ALL 23:18 62(52) I   level=34000    
8605-8608 focus SN 23:21 10 B 1.1(-) f=-1.25(T=17.1), -1.40, -1.36,-1.35(T=17.0)    
8609-8611 N2784-3 SN 23:32 60   1.1(-) filter=B,V,I    
8612-8614 N2784-4 SN 23:39 60   1.1(-)      
8615-8617 N2784-5 SN 23:47 60   1.0(0.9) f=-1.32    
8618-8620 N2784-6 SN 23:55 60   1.1(0.9)      
8621-8624 N2784-7 SN 0:03 60   1.3(0.9) 8623 PC-TCS disabled. Tracking off    
8625-8627 N2784-3 SN 0:13 60   1.0(0.9)      
8628-8630 N2784-4 SN 0:21 60   1.1(0.9)      
8631-8633 N2784-5 SN 0:28 60   1.1(0.8)      
8634-8636 N2784-6 SN 0:36 60   1.1(0.9)      
8637-8639 N2784-7 SN 0:43 60   1.1(0.7) M-6 strip level jump    
8640-8642 N2784-3 SN 0:50 60   1.1(0.6) f=-1.27    
8643-8645 N2784-4 SN 0:59 60   1.0(0.7)      
8646-8648 N2784-5 SN 1:08 60   1.0(0.6)      
8649-8651 N2784-6 SN 1:15 60   0.9(0.4)      
8652-8654 N2784-7 SN 1:23 60   0.9(0.6)      
8655-8657 N2784-3 SN 1:32 60   0.8(0.6)      
8658-8660 N2784-4 SN 1:39 60   0.9(0.5)      
8661-8663 N2784-5 SN 1:46 60   0.9(0.6)      
8664-8666 N2784-6 SN 1:54 60   1.0(0.6)      
8667-8669 N2784-7 SN 2:02 60   0.9(0.5)      
8670-8672 N2784-3 SN 2:10 60   0.9(0.6)      
8673-8676 N2784-4 SN 2:18 60   0.9(0.5) 8675 PC-TCS down, no-tracking    
8677-8679 N2784-5 SN 2:31 60   0.9(0.5)      
8680-8682 N2784-6 SN 2:38 60   0.9(0.5)      
8683-8685 N2784-7 SN 2:46 60   0.9(0.5)      
8686-8688 N2784-3 SN 2:54 60   0.9(0.5)      
8689-8691 N2784-4 SN 3:01 60   0.9(0.5)      
8692-8694 N2784-5 SN 3:09 60   0.9(0.5)      
8695-8697 N2784-6 SN 3:17 60   0.9(0.5)      
8698-8700 N2784-7 SN 3:22 60   0.9(0.5)      
8701-8703 N2784-3 SN 3:31 60   0.9(0.6)      
8704-8706 N2784-4 SN 3:40 60   0.9(0.6)      
8707-8709 N2784-5 SN 3:49 60   0.9(0.5)      
8710-8712 N2784-6 SN 3:57 60   0.9(0.5)      
8713-8715 N2784-7 SN 4:05 60   1.0(0.5)      
8716-8718 N2784-3 SN 4:13 60   1.1(0.5)      
8719-8721 N2784-4 SN 4:20 60   1.1(0.5)      
8722-8724 N2784-5 SN 4:27 60   1.2(0.5)      
8725-8727 N2784-6 SN 4:35 60   1.2(0.5)      
                   
8824 flat ALL 10:19 55(50) R   level=44000    
8825 flat ALL 10:22 20(25) R   level=27000    
8826 flat ALL 10:25 20(22) B   level=34000    
8827 flat ALL 10:27 10(12) B   level=30000    
8828 flat ALL 10:29 5(7) B   level=26000    
8829-8833 dark ALL 10:47 100 R        
8834-8843 bias ALL 11:02   R        
8844 end OBS 11:15 1 R